Time;durP1;ratioP1;P1;durP2;ratioP2;P2;SDS_P1;SDS_P2;PMS_P1;PMS_P2;Temp;Humidity;BMP_temperature;BMP_pressure;BME280_temperature;BME280_humidity;BME280_pressure;Samples;Min_cycle;Max_cycle;Signal;HPM_P1;HPM_P2
2024/03/25 00:00:10;;;;;;;1.67;0.95;;;9.10;95.20;;;;;;4149015;28;20046;-55
2024/03/25 00:02:12;;;;;;;1.08;0.80;;;9.10;95.40;;;;;;4148906;28;20398;-55
2024/03/25 00:04:13;;;;;;;1.25;0.80;;;9.10;95.00;;;;;;4148775;28;20046;-54
2024/03/25 00:06:14;;;;;;;1.30;0.85;;;9.10;95.30;;;;;;4148779;28;20080;-55
2024/03/25 00:08:17;;;;;;;1.13;0.75;;;9.10;95.60;;;;;;4132441;28;20050;-56
2024/03/25 00:10:20;;;;;;;0.65;0.40;;;9.10;95.00;;;;;;4132467;28;20076;-57
2024/03/25 00:12:21;;;;;;;2.25;1.20;;;9.10;95.40;;;;;;4148876;28;20046;-55
2024/03/25 00:14:23;;;;;;;3.50;0.68;;;9.10;95.40;;;;;;4148481;28;20171;-55
2024/03/25 00:16:25;;;;;;;2.70;1.08;;;9.00;95.20;;;;;;4148584;28;20042;-54
2024/03/25 00:18:26;;;;;;;2.53;0.98;;;9.00;95.10;;;;;;4148478;28;20049;-54
2024/03/25 00:20:28;;;;;;;1.75;1.25;;;8.90;95.00;;;;;;4148633;28;20057;-57
2024/03/25 00:22:29;;;;;;;1.20;1.10;;;9.00;95.10;;;;;;4148751;28;20060;-54
2024/03/25 00:24:32;;;;;;;1.25;1.05;;;9.00;95.10;;;;;;4148685;28;20379;-55
2024/03/25 00:26:33;;;;;;;0.82;0.60;;;9.00;94.90;;;;;;4148585;28;20062;-54
2024/03/25 00:28:35;;;;;;;0.60;0.50;;;9.00;94.70;;;;;;4148304;28;20057;-54
2024/03/25 00:30:36;;;;;;;9.00;2.00;;;9.00;94.60;;;;;;4148384;28;20052;-53
2024/03/25 00:32:38;;;;;;;1.30;0.60;;;8.90;95.00;;;;;;4148562;28;20054;-55
2024/03/25 00:34:39;;;;;;;10.75;2.88;;;8.80;94.90;;;;;;4148495;28;20485;-56
2024/03/25 00:36:40;;;;;;;0.93;0.55;;;8.90;95.70;;;;;;4148238;28;20046;-57
2024/03/25 00:38:43;;;;;;;1.33;0.43;;;8.70;95.80;;;;;;4147989;28;20053;-55
2024/03/25 00:40:46;;;;;;;1.25;0.68;;;8.70;96.00;;;;;;4148388;28;20053;-57
2024/03/25 00:42:47;;;;;;;2.35;0.70;;;8.60;96.10;;;;;;4148024;28;20069;-56
2024/03/25 00:44:49;;;;;;;1.30;0.50;;;8.70;96.20;;;;;;4148315;28;20046;-56
2024/03/25 00:46:51;;;;;;;0.70;0.70;;;8.60;96.10;;;;;;4148193;28;20058;-56
2024/03/25 00:48:52;;;;;;;0.98;0.65;;;8.70;95.90;;;;;;4148181;28;20397;-56
2024/03/25 00:50:53;;;;;;;2.58;0.70;;;8.90;96.40;;;;;;4147284;28;20046;-57
2024/03/25 00:52:55;;;;;;;0.80;0.73;;;8.90;96.20;;;;;;4147773;28;20061;-56
2024/03/25 00:54:56;;;;;;;3.17;0.90;;;8.70;96.10;;;;;;4148070;28;20053;-56
2024/03/25 00:56:59;;;;;;;0.47;0.47;;;8.60;96.00;;;;;;4152610;28;20056;-57
2024/03/25 00:59:03;;;;;;;1.83;0.77;;;8.50;96.60;;;;;;4131889;28;20056;-56
2024/03/25 01:01:05;;;;;;;1.50;0.60;;;8.50;96.60;;;;;;4148015;28;20053;-54
2024/03/25 01:03:06;;;;;;;10.25;1.90;;;8.40;96.80;;;;;;4148384;28;20127;-56
2024/03/25 01:05:08;;;;;;;1.17;1.00;;;8.50;96.80;;;;;;4148092;28;20064;-56
2024/03/25 01:07:10;;;;;;;1.95;0.57;;;8.40;96.50;;;;;;4147493;28;20050;-55
2024/03/25 01:09:12;;;;;;;2.58;1.02;;;8.40;97.00;;;;;;4147677;28;20046;-56
2024/03/25 01:11:14;;;;;;;0.93;0.80;;;8.50;97.40;;;;;;4147880;28;20505;-56
2024/03/25 01:13:17;;;;;;;1.27;1.17;;;8.50;97.20;;;;;;4148344;28;20050;-56
2024/03/25 01:15:18;;;;;;;3.60;1.10;;;8.50;96.60;;;;;;4147680;28;20060;-55
2024/03/25 01:17:19;;;;;;;1.45;0.80;;;8.50;96.50;;;;;;4147455;28;20058;-55
2024/03/25 01:19:21;;;;;;;1.20;1.10;;;8.40;96.60;;;;;;4147520;28;20050;-55
2024/03/25 01:21:23;;;;;;;3.90;1.25;;;8.50;96.80;;;;;;4147551;28;20050;-55
2024/03/25 01:23:24;;;;;;;1.52;0.77;;;8.40;96.20;;;;;;4147626;28;20056;-55
2024/03/25 01:25:26;;;;;;;1.60;0.80;;;8.30;96.40;;;;;;4147485;28;20515;-56
2024/03/25 01:27:27;;;;;;;2.03;0.73;;;8.30;96.60;;;;;;4147542;28;20060;-56
2024/03/25 01:29:30;;;;;;;1.70;0.80;;;8.30;96.80;;;;;;4131459;28;20432;-55
2024/03/25 01:31:31;;;;;;;1.08;0.68;;;8.30;96.70;;;;;;4147374;28;20060;-56
2024/03/25 01:33:32;;;;;;;6.72;0.60;;;8.20;96.80;;;;;;4147409;28;20057;-56
2024/03/25 01:35:34;;;;;;;2.70;1.40;;;8.20;97.00;;;;;;4147353;28;20072;-56
2024/03/25 01:37:35;;;;;;;3.20;1.05;;;8.20;97.50;;;;;;4147382;28;20056;-56
2024/03/25 01:39:38;;;;;;;1.95;0.57;;;8.30;96.90;;;;;;4147545;28;20050;-55
2024/03/25 01:41:40;;;;;;;0.75;0.75;;;8.30;97.20;;;;;;4147348;28;20096;-56
2024/03/25 01:43:41;;;;;;;2.90;2.58;;;8.30;96.90;;;;;;4147293;28;20386;-55
2024/03/25 01:45:44;;;;;;;0.50;0.50;;;8.30;96.90;;;;;;4147149;28;20073;-56
2024/03/25 01:47:46;;;;;;;1.90;0.73;;;8.20;96.80;;;;;;4147137;28;20058;-55
2024/03/25 01:49:48;;;;;;;3.20;0.73;;;8.40;97.10;;;;;;4146860;28;20072;-55
2024/03/25 01:51:49;;;;;;;1.42;0.88;;;8.40;97.10;;;;;;4147212;28;20050;-56
2024/03/25 01:53:53;;;;;;;2.00;1.00;;;8.40;96.70;;;;;;4147087;28;20054;-54
2024/03/25 01:55:57;;;;;;;2.03;1.00;;;8.40;96.20;;;;;;4147073;28;20046;-55
2024/03/25 01:57:58;;;;;;;0.50;0.50;;;8.30;96.10;;;;;;4147176;28;20064;-57
2024/03/25 01:59:59;;;;;;;2.53;1.15;;;8.30;96.70;;;;;;4147238;28;20048;-55
2024/03/25 02:02:03;;;;;;;4.90;1.88;;;8.20;97.40;;;;;;4146896;28;20485;-56
2024/03/25 02:04:05;;;;;;;1.17;0.43;;;8.40;97.40;;;;;;4129853;28;20046;-55
2024/03/25 02:06:12;;;;;;;1.50;1.23;;;8.40;97.10;;;;;;4147075;28;20513;-55
2024/03/25 02:08:14;;;;;;;2.25;1.27;;;8.30;97.00;;;;;;4147170;28;20049;-55
2024/03/25 02:10:16;;;;;;;5.15;2.17;;;8.20;97.10;;;;;;4147226;28;20402;-55
2024/03/25 02:12:18;;;;;;;4.22;0.63;;;8.20;96.90;;;;;;4146910;28;20064;-54
2024/03/25 02:14:20;;;;;;;2.78;0.93;;;8.20;97.00;;;;;;4147302;28;20052;-55
2024/03/25 02:16:21;;;;;;;1.35;1.08;;;8.20;96.70;;;;;;4146689;28;20060;-56
2024/03/25 02:18:24;;;;;;;3.53;1.45;;;8.20;96.90;;;;;;4146664;28;20062;-55
2024/03/25 02:20:26;;;;;;;3.38;1.58;;;8.30;97.40;;;;;;4146452;28;20184;-55
2024/03/25 02:22:27;;;;;;;0.77;0.77;;;8.30;96.40;;;;;;4146743;28;20509;-55
2024/03/25 02:24:31;;;;;;;1.88;1.17;;;8.40;96.80;;;;;;4146563;28;20050;-55
2024/03/25 02:26:33;;;;;;;6.60;0.70;;;8.30;96.90;;;;;;4146871;28;20433;-56
2024/03/25 02:28:35;;;;;;;3.65;1.45;;;8.30;96.60;;;;;;4146573;28;20054;-56
2024/03/25 02:30:36;;;;;;;2.20;1.33;;;8.20;96.80;;;;;;4146716;28;20046;-55
2024/03/25 02:32:38;;;;;;;1.05;0.88;;;8.30;97.10;;;;;;4146903;28;20057;-55
2024/03/25 02:34:44;;;;;;;1.90;1.17;;;8.20;97.50;;;;;;4146048;28;20056;-55
2024/03/25 02:36:46;;;;;;;2.08;1.00;;;8.40;96.80;;;;;;4146510;28;20508;-55
2024/03/25 02:38:47;;;;;;;3.58;1.00;;;8.40;97.50;;;;;;4146528;28;20068;-55
2024/03/25 02:40:50;;;;;;;0.73;0.68;;;8.70;97.20;;;;;;4146220;28;20052;-56
2024/03/25 02:42:53;;;;;;;1.30;1.17;;;8.80;96.90;;;;;;4146608;28;20060;-56
2024/03/25 02:44:55;;;;;;;1.42;0.80;;;8.90;96.60;;;;;;4146318;28;20046;-55
2024/03/25 02:46:57;;;;;;;1.83;0.93;;;8.90;96.70;;;;;;4146523;28;20049;-55
2024/03/25 02:48:58;;;;;;;1.85;0.98;;;8.90;95.80;;;;;;4146000;28;20046;-56
2024/03/25 02:51:00;;;;;;;1.70;1.08;;;8.90;96.10;;;;;;4146146;28;20049;-55
2024/03/25 02:53:01;;;;;;;1.30;0.70;;;8.90;96.00;;;;;;4146504;28;20068;-55
2024/03/25 02:55:03;;;;;;;1.48;0.93;;;8.70;96.10;;;;;;4146376;28;20054;-53
2024/03/25 02:57:04;;;;;;;2.95;1.48;;;8.60;96.00;;;;;;4146273;28;20050;-54
2024/03/25 02:59:07;;;;;;;1.35;1.13;;;8.60;96.50;;;;;;4146409;28;20046;-54
2024/03/25 03:01:09;;;;;;;3.13;0.50;;;8.70;96.40;;;;;;4146401;28;20049;-56
2024/03/25 03:03:10;;;;;;;1.85;1.20;;;8.60;96.00;;;;;;4146032;28;20085;-56
2024/03/25 03:05:11;;;;;;;2.40;0.80;;;8.70;96.70;;;;;;4146099;28;20045;-54
2024/03/25 03:07:13;;;;;;;2.78;0.93;;;8.60;96.00;;;;;;4146265;28;20052;-56
2024/03/25 03:09:15;;;;;;;0.57;0.57;;;8.60;96.20;;;;;;4146487;28;20076;-56
2024/03/25 03:11:16;;;;;;;1.67;1.02;;;8.70;96.50;;;;;;4146160;28;20050;-56
2024/03/25 03:13:17;;;;;;;1.17;0.47;;;8.70;96.80;;;;;;4146159;28;20413;-56
2024/03/25 03:15:20;;;;;;;1.60;0.88;;;8.70;96.50;;;;;;4149017;28;20045;-57
2024/03/25 03:17:22;;;;;;;1.13;1.02;;;8.60;96.20;;;;;;4149134;28;20052;-56
2024/03/25 03:19:24;;;;;;;0.80;0.80;;;8.50;96.10;;;;;;4149713;28;20500;-57
2024/03/25 03:21:26;;;;;;;4.22;0.85;;;8.40;96.30;;;;;;4149512;28;20336;-58
2024/03/25 03:23:30;;;;;;;2.55;0.80;;;8.30;96.10;;;;;;4149566;28;20056;-58
2024/03/25 03:25:31;;;;;;;0.88;0.45;;;8.20;96.00;;;;;;4149235;28;20058;-55
2024/03/25 03:27:33;;;;;;;2.72;1.65;;;8.20;96.80;;;;;;4149470;28;20054;-55
2024/03/25 03:29:34;;;;;;;1.92;0.70;;;8.30;96.50;;;;;;4149322;28;20050;-55
2024/03/25 03:31:37;;;;;;;0.85;0.70;;;8.20;96.40;;;;;;4149188;28;20053;-55
2024/03/25 03:33:38;;;;;;;1.75;0.60;;;8.20;96.30;;;;;;4149211;28;20050;-57
2024/03/25 03:35:40;;;;;;;4.03;2.00;;;8.20;96.60;;;;;;4149251;28;20050;-55
2024/03/25 03:37:41;;;;;;;2.38;0.85;;;8.30;97.30;;;;;;4149436;28;20050;-56
2024/03/25 03:39:42;;;;;;;2.95;0.80;;;8.20;96.80;;;;;;4149218;28;20052;-56
2024/03/25 03:41:44;;;;;;;5.97;1.42;;;8.30;97.10;;;;;;4149108;28;20049;-56
2024/03/25 03:43:45;;;;;;;3.97;1.80;;;8.30;96.90;;;;;;4149074;28;20060;-56
2024/03/25 03:45:46;;;;;;;0.82;0.50;;;8.20;96.70;;;;;;4148569;28;20060;-58
2024/03/25 03:47:49;;;;;;;3.13;0.68;;;8.20;97.50;;;;;;4149002;28;20045;-56
2024/03/25 03:49:51;;;;;;;3.58;1.10;;;8.10;96.80;;;;;;4149393;28;20057;-56
2024/03/25 03:51:52;;;;;;;1.55;0.85;;;8.10;97.10;;;;;;4149009;28;20100;-55
2024/03/25 03:53:53;;;;;;;1.67;1.10;;;8.20;97.90;;;;;;4149110;28;20049;-55
2024/03/25 03:55:55;;;;;;;6.60;1.85;;;8.20;97.40;;;;;;4149125;28;20042;-56
2024/03/25 03:57:57;;;;;;;2.65;0.80;;;8.20;97.10;;;;;;4132701;28;20038;-56
2024/03/25 03:59:58;;;;;;;5.53;0.77;;;8.30;97.50;;;;;;4148826;28;20060;-56
2024/03/25 04:02:00;;;;;;;6.28;1.33;;;8.40;97.30;;;;;;4148475;28;20046;-54
2024/03/25 04:04:02;;;;;;;1.88;1.15;;;8.40;97.30;;;;;;4148892;28;20072;-56
2024/03/25 04:06:11;;;;;;;1.02;0.73;;;8.40;96.70;;;;;;4148475;28;20064;-55
2024/03/25 04:08:12;;;;;;;1.73;0.80;;;8.40;97.20;;;;;;4148971;28;20061;-56
2024/03/25 04:10:15;;;;;;;0.90;0.60;;;8.30;96.90;;;;;;4148914;28;20060;-55
2024/03/25 04:12:18;;;;;;;3.15;0.77;;;8.30;96.70;;;;;;4148610;28;20046;-56
2024/03/25 04:14:19;;;;;;;2.88;0.90;;;8.30;96.70;;;;;;4148787;28;20042;-54
2024/03/25 04:16:22;;;;;;;1.50;0.63;;;8.30;96.60;;;;;;4148141;28;20100;-54
2024/03/25 04:18:24;;;;;;;0.85;0.70;;;8.30;96.60;;;;;;4148423;28;20056;-57
2024/03/25 04:20:30;;;;;;;1.10;0.65;;;8.30;97.00;;;;;;4132559;28;20581;-56
2024/03/25 04:22:32;;;;;;;1.30;0.57;;;8.30;97.20;;;;;;4148474;28;20517;-57
2024/03/25 04:24:34;;;;;;;0.63;0.63;;;8.30;96.90;;;;;;4148406;28;20092;-56
2024/03/25 04:26:35;;;;;;;1.20;0.90;;;8.40;96.70;;;;;;4147276;28;20049;-57
2024/03/25 04:28:37;;;;;;;2.88;0.88;;;8.40;96.60;;;;;;4148520;28;20476;-56
2024/03/25 04:30:38;;;;;;;0.50;0.45;;;8.40;96.40;;;;;;4148151;28;20057;-56
2024/03/25 04:32:40;;;;;;;2.30;1.17;;;8.40;96.70;;;;;;4148292;28;20046;-56
2024/03/25 04:34:41;;;;;;;1.92;1.10;;;8.50;97.00;;;;;;4148435;28;20054;-56
2024/03/25 04:36:44;;;;;;;56.92;3.58;;;8.50;96.70;;;;;;4148315;28;20058;-56
2024/03/25 04:38:45;;;;;;;0.93;0.50;;;8.40;96.80;;;;;;4148402;28;20049;-56
2024/03/25 04:40:46;;;;;;;1.42;0.68;;;8.30;96.00;;;;;;4148366;28;20046;-57
2024/03/25 04:42:48;;;;;;;3.47;2.25;;;8.20;96.80;;;;;;4148464;28;20076;-56
2024/03/25 04:44:50;;;;;;;1.10;0.55;;;8.10;96.20;;;;;;4148082;28;20061;-57
2024/03/25 04:46:52;;;;;;;2.05;1.10;;;8.20;97.30;;;;;;4131824;28;20133;-57
2024/03/25 04:48:53;;;;;;;2.92;1.05;;;8.20;97.10;;;;;;4148006;28;20230;-57
2024/03/25 04:50:55;;;;;;;1.02;0.77;;;8.30;96.70;;;;;;4148290;28;20121;-56
2024/03/25 04:52:58;;;;;;;1.35;1.15;;;8.20;97.00;;;;;;4148157;28;20050;-56
2024/03/25 04:54:59;;;;;;;2.53;0.75;;;8.30;96.90;;;;;;4147989;28;20050;-57
2024/03/25 04:57:00;;;;;;;3.88;2.25;;;8.30;96.70;;;;;;4148157;28;20535;-57
2024/03/25 04:59:02;;;;;;;2.15;1.15;;;8.30;96.80;;;;;;4147917;28;20053;-57
2024/03/25 05:01:03;;;;;;;1.58;0.70;;;8.30;96.80;;;;;;4147932;28;20046;-54
2024/03/25 05:03:05;;;;;;;1.58;0.80;;;8.20;96.60;;;;;;4148077;28;20256;-55
2024/03/25 05:05:07;;;;;;;10.95;2.03;;;8.20;96.80;;;;;;4147816;28;20050;-55
2024/03/25 05:07:10;;;;;;;4.78;0.93;;;8.20;96.40;;;;;;4147882;28;20128;-56
2024/03/25 05:09:13;;;;;;;0.88;0.60;;;8.20;96.90;;;;;;4148178;28;20458;-57
2024/03/25 05:11:14;;;;;;;1.38;1.20;;;8.20;96.60;;;;;;4147859;28;20050;-56
2024/03/25 05:13:15;;;;;;;5.80;1.65;;;8.20;96.80;;;;;;4147595;28;20054;-56
2024/03/25 05:15:17;;;;;;;8.48;0.80;;;8.30;96.90;;;;;;4147749;28;20042;-57
2024/03/25 05:17:18;;;;;;;2.30;0.98;;;8.50;97.50;;;;;;4147570;28;20375;-55
2024/03/25 05:19:19;;;;;;;2.88;2.03;;;8.50;96.90;;;;;;4147994;28;20120;-56
2024/03/25 05:21:20;;;;;;;2.65;0.57;;;8.50;96.70;;;;;;4147580;28;20125;-56
2024/03/25 05:23:22;;;;;;;1.77;0.90;;;8.50;96.50;;;;;;4131599;28;20050;-56
2024/03/25 05:25:28;;;;;;;0.68;0.40;;;8.40;96.50;;;;;;4131452;28;20060;-56
2024/03/25 05:27:30;;;;;;;2.42;1.15;;;8.30;96.50;;;;;;4131077;28;20543;-58
2024/03/25 05:29:31;;;;;;;2.13;0.90;;;8.20;96.20;;;;;;4131028;28;20054;-56
2024/03/25 05:31:32;;;;;;;1.88;1.67;;;8.20;97.00;;;;;;4130998;28;20050;-56
2024/03/25 05:33:34;;;;;;;2.22;0.70;;;8.30;96.80;;;;;;4130916;28;20164;-55
2024/03/25 05:35:36;;;;;;;3.95;0.93;;;8.20;96.40;;;;;;4131144;28;20050;-55
2024/03/25 05:37:37;;;;;;;14.02;1.67;;;8.20;97.00;;;;;;4131051;28;20054;-56
2024/03/25 05:39:39;;;;;;;1.23;0.65;;;8.20;96.90;;;;;;4137974;28;20050;-55
2024/03/25 05:41:41;;;;;;;2.92;1.05;;;8.20;97.70;;;;;;4146796;28;20052;-54
2024/03/25 05:43:43;;;;;;;2.55;1.50;;;8.20;96.70;;;;;;4147544;28;20041;-55
2024/03/25 05:45:50;;;;;;;1.75;1.02;;;8.40;97.30;;;;;;4131065;28;20057;-56
2024/03/25 05:47:52;;;;;;;1.58;0.70;;;8.30;97.40;;;;;;4147405;28;20410;-55
2024/03/25 05:49:53;;;;;;;0.65;0.47;;;8.20;96.60;;;;;;4130798;28;20048;-55
2024/03/25 05:51:54;;;;;;;1.30;0.82;;;8.20;96.90;;;;;;4147320;28;20052;-57
2024/03/25 05:53:56;;;;;;;1.20;0.70;;;8.20;96.70;;;;;;4147202;28;20048;-56
2024/03/25 05:56:00;;;;;;;2.25;1.08;;;8.20;97.10;;;;;;4146976;28;20042;-55
2024/03/25 05:58:03;;;;;;;3.13;0.80;;;8.20;97.00;;;;;;4146606;28;20060;-55
2024/03/25 06:00:07;;;;;;;1.40;0.60;;;8.10;96.70;;;;;;4147179;28;20050;-56
2024/03/25 06:02:09;;;;;;;1.33;1.20;;;8.20;97.10;;;;;;4147225;28;20505;-55
2024/03/25 06:04:10;;;;;;;1.27;0.77;;;8.20;97.00;;;;;;4147258;28;20049;-57
2024/03/25 06:06:11;;;;;;;5.93;2.17;;;8.20;97.10;;;;;;4146968;28;20064;-56
2024/03/25 06:08:20;;;;;;;1.83;1.02;;;8.30;96.90;;;;;;4147169;28;20064;-55
2024/03/25 06:10:22;;;;;;;1.13;0.77;;;8.20;96.60;;;;;;4147313;28;20042;-56
2024/03/25 06:12:23;;;;;;;1.30;0.88;;;8.20;96.90;;;;;;4146839;28;20053;-56
2024/03/25 06:14:26;;;;;;;8.90;2.75;;;8.10;97.00;;;;;;4146885;28;20049;-57
2024/03/25 06:16:28;;;;;;;2.92;0.77;;;8.10;96.60;;;;;;4146555;28;20166;-57
2024/03/25 06:18:29;;;;;;;5.85;2.40;;;8.10;96.80;;;;;;4146783;28;20100;-54
2024/03/25 06:20:30;;;;;;;1.38;0.88;;;8.10;97.00;;;;;;4146645;28;20046;-54
2024/03/25 06:22:32;;;;;;;5.88;1.75;;;8.20;97.30;;;;;;4146508;28;20046;-56
2024/03/25 06:24:33;;;;;;;1.80;1.15;;;8.10;96.70;;;;;;4146867;28;20068;-57
2024/03/25 06:26:34;;;;;;;3.10;1.27;;;8.00;96.70;;;;;;4146125;28;20054;-57
2024/03/25 06:28:36;;;;;;;3.03;1.50;;;8.10;96.40;;;;;;4146705;28;20045;-56
2024/03/25 06:35:19;;;;;;;2.42;1.23;;;8.10;96.30;;;;;;4146990;28;20045;-56
2024/03/25 06:37:20;;;;;;;1.98;1.48;;;8.20;96.50;;;;;;4147003;28;20054;-56
2024/03/25 06:39:22;;;;;;;2.85;1.25;;;8.20;96.30;;;;;;4146883;28;20045;-56
2024/03/25 06:41:24;;;;;;;5.28;1.58;;;8.20;96.10;;;;;;4146224;28;20054;-57
2024/03/25 06:43:25;;;;;;;1.27;0.77;;;8.20;95.80;;;;;;4146988;28;20408;-56
2024/03/25 06:45:26;;;;;;;1.00;0.60;;;8.30;97.20;;;;;;4146374;28;20049;-57
2024/03/25 06:47:29;;;;;;;2.40;1.83;;;8.40;96.20;;;;;;4146407;28;20420;-57
2024/03/25 06:49:30;;;;;;;0.60;0.60;;;8.30;95.70;;;;;;4146493;28;20465;-57
2024/03/25 06:51:32;;;;;;;3.17;1.70;;;8.40;96.20;;;;;;4146495;28;20388;-62
2024/03/25 06:53:33;;;;;;;2.22;0.70;;;8.50;95.70;;;;;;4146617;28;20517;-57
2024/03/25 06:55:34;;;;;;;1.15;0.80;;;8.50;96.00;;;;;;4146466;28;20058;-56
2024/03/25 06:57:36;;;;;;;6.13;1.90;;;8.40;95.50;;;;;;4146519;28;20054;-56
2024/03/25 06:59:37;;;;;;;3.00;0.98;;;8.40;95.40;;;;;;4146577;28;20511;-54
2024/03/25 07:01:39;;;;;;;2.17;0.93;;;8.40;95.90;;;;;;4146343;28;20143;-55
2024/03/25 07:03:42;;;;;;;2.50;0.70;;;8.50;95.70;;;;;;4146435;28;20050;-54
2024/03/25 07:05:47;;;;;;;4.03;0.88;;;8.40;95.40;;;;;;4130198;28;20047;-54
2024/03/25 07:07:48;;;;;;;0.73;0.60;;;8.60;95.80;;;;;;4146231;28;20477;-56
2024/03/25 07:09:49;;;;;;;1.77;1.00;;;8.50;94.90;;;;;;4146302;28;20092;-55
2024/03/25 07:11:51;;;;;;;5.95;1.10;;;8.50;95.70;;;;;;4146292;28;20060;-55
2024/03/25 07:13:52;;;;;;;3.05;1.08;;;8.50;95.50;;;;;;4146436;28;20056;-56
2024/03/25 07:15:55;;;;;;;1.17;0.80;;;8.50;95.70;;;;;;4146540;28;20050;-56
2024/03/25 07:17:57;;;;;;;1.65;1.25;;;8.60;95.30;;;;;;4146213;28;20058;-55
2024/03/25 07:20:01;;;;;;;2.63;1.05;;;8.60;95.70;;;;;;4146303;28;20054;-54
2024/03/25 07:22:03;;;;;;;3.33;1.63;;;8.60;95.10;;;;;;4113993;28;20050;-54
2024/03/25 07:24:05;;;;;;;1.63;1.00;;;8.50;94.70;;;;;;4146020;28;20440;-55
2024/03/25 07:26:06;;;;;;;2.33;1.60;;;8.60;94.80;;;;;;4146139;28;20521;-54
2024/03/25 07:28:08;;;;;;;2.92;0.77;;;8.70;96.10;;;;;;4146571;28;20054;-54
2024/03/25 07:30:10;;;;;;;4.18;2.65;;;8.80;95.90;;;;;;4146111;28;20046;-54
2024/03/25 07:32:11;;;;;;;2.15;0.80;;;8.80;95.10;;;;;;4146199;28;20053;-54
2024/03/25 07:34:13;;;;;;;1.17;0.63;;;8.90;95.50;;;;;;4146408;28;20049;-55
2024/03/25 07:36:16;;;;;;;0.70;0.55;;;9.00;94.60;;;;;;4146112;28;20054;-55
2024/03/25 07:38:17;;;;;;;1.60;0.80;;;9.10;94.60;;;;;;4145908;28;20432;-53
2024/03/25 07:40:19;;;;;;;1.15;0.93;;;9.10;93.90;;;;;;4142448;28;20046;-54
2024/03/25 07:42:20;;;;;;;0.77;0.40;;;9.40;94.40;;;;;;4129800;28;20050;-53
2024/03/25 07:44:21;;;;;;;0.82;0.52;;;9.70;93.90;;;;;;4129787;28;20053;-56
2024/03/25 07:46:23;;;;;;;0.60;0.45;;;10.10;93.70;;;;;;4129647;28;20064;-56
2024/03/25 07:48:24;;;;;;;2.72;1.27;;;10.50;92.70;;;;;;4129577;28;20052;-56
2024/03/25 07:50:25;;;;;;;1.83;0.85;;;10.60;92.80;;;;;;4129736;28;20526;-57
2024/03/25 07:52:28;;;;;;;1.90;0.65;;;10.90;92.10;;;;;;4129577;28;20517;-55
2024/03/25 07:54:30;;;;;;;3.70;0.65;;;11.30;92.10;;;;;;4130086;28;20058;-56
2024/03/25 07:56:32;;;;;;;0.90;0.50;;;11.80;91.60;;;;;;4130719;28;20391;-56
2024/03/25 07:58:34;;;;;;;0.85;0.45;;;12.00;90.60;;;;;;4131304;28;20117;-55
2024/03/25 08:00:35;;;;;;;1.92;1.42;;;12.10;91.00;;;;;;4131553;28;20046;-58
2024/03/25 08:02:36;;;;;;;2.13;1.52;;;12.30;90.50;;;;;;4133601;28;20047;-56
2024/03/25 08:04:38;;;;;;;0.95;0.80;;;12.30;90.10;;;;;;4133324;28;20122;-54
2024/03/25 08:06:39;;;;;;;2.25;0.93;;;12.30;90.20;;;;;;4116462;28;20065;-56
2024/03/25 08:08:42;;;;;;;1.63;0.98;;;12.30;89.50;;;;;;4116735;28;20482;-53
2024/03/25 08:10:45;;;;;;;1.48;0.45;;;12.40;90.80;;;;;;4132680;28;20064;-53
2024/03/25 08:12:48;;;;;;;5.45;1.45;;;12.50;89.60;;;;;;4132479;28;20050;-56
2024/03/25 08:14:49;;;;;;;4.03;0.55;;;12.50;88.80;;;;;;4132850;28;20062;-56
2024/03/25 08:16:51;;;;;;;0.90;0.63;;;12.40;89.40;;;;;;4132990;28;20514;-54
2024/03/25 08:18:52;;;;;;;1.52;0.60;;;12.70;88.90;;;;;;4133035;28;20066;-53
2024/03/25 08:20:53;;;;;;;0.40;0.40;;;13.00;88.30;;;;;;4133057;28;20057;-54
2024/03/25 08:22:55;;;;;;;3.00;1.20;;;13.20;89.30;;;;;;4132624;28;20525;-54
2024/03/25 08:24:57;;;;;;;1.50;0.50;;;13.10;86.00;;;;;;4132689;28;20054;-53
2024/03/25 08:26:59;;;;;;;0.88;0.40;;;13.10;89.00;;;;;;4132363;28;20058;-53
2024/03/25 08:29:00;;;;;;;1.92;0.68;;;13.20;87.00;;;;;;4132229;28;20046;-58
2024/03/25 08:31:02;;;;;;;1.85;0.85;;;13.00;86.70;;;;;;4132372;28;20050;-53
2024/03/25 08:33:04;;;;;;;0.75;0.35;;;12.80;88.20;;;;;;4116171;28;20050;-55
2024/03/25 08:35:06;;;;;;;0.57;0.30;;;12.80;88.20;;;;;;4132486;28;20054;-55
2024/03/25 08:37:07;;;;;;;1.70;0.63;;;12.70;88.70;;;;;;4132042;28;20052;-55
2024/03/25 08:39:09;;;;;;;2.65;0.55;;;12.60;88.80;;;;;;4135246;28;20046;-56
2024/03/25 08:41:11;;;;;;;0.82;0.50;;;12.60;89.50;;;;;;4148505;28;20050;-56
2024/03/25 08:43:13;;;;;;;1.50;0.38;;;12.40;86.90;;;;;;4148590;28;20096;-55
2024/03/25 08:45:14;;;;;;;2.15;0.70;;;12.40;88.90;;;;;;4132374;28;20054;-55
2024/03/25 08:47:16;;;;;;;0.47;0.38;;;12.40;88.20;;;;;;4148262;28;20056;-55
2024/03/25 08:49:17;;;;;;;1.10;0.80;;;12.40;90.00;;;;;;4148443;28;20046;-56
2024/03/25 08:51:18;;;;;;;3.22;0.52;;;12.40;90.00;;;;;;4147742;28;20056;-56
2024/03/25 08:53:20;;;;;;;2.25;1.35;;;12.40;88.60;;;;;;4147963;28;20046;-55
2024/03/25 08:55:21;;;;;;;1.33;0.70;;;12.30;90.00;;;;;;4147911;28;20050;-56
2024/03/25 08:57:24;;;;;;;2.60;1.42;;;12.20;90.40;;;;;;4147988;28;20060;-55
2024/03/25 08:59:25;;;;;;;2.38;1.38;;;12.40;90.10;;;;;;4148037;28;20052;-56
2024/03/25 09:01:27;;;;;;;5.32;1.33;;;12.30;90.40;;;;;;4148411;28;20049;-55
2024/03/25 09:03:29;;;;;;;1.33;1.17;;;12.30;90.70;;;;;;4148312;28;20064;-55
2024/03/25 09:05:30;;;;;;;1.40;0.85;;;12.30;90.60;;;;;;4148005;28;20068;-54
2024/03/25 09:07:31;;;;;;;1.33;0.50;;;12.40;90.80;;;;;;4148051;28;20520;-55
2024/03/25 09:11:52;;;;;;;1.15;1.05;;;12.30;90.70;;;;;;4147471;28;20046;-54
2024/03/25 09:13:55;;;;;;;2.22;1.02;;;12.30;91.10;;;;;;4131846;28;20042;-54
2024/03/25 09:15:56;;;;;;;0.93;0.50;;;12.30;90.90;;;;;;4147819;28;20050;-57
2024/03/25 09:17:58;;;;;;;1.60;0.50;;;12.40;91.00;;;;;;4148455;28;20057;-54
2024/03/25 09:19:59;;;;;;;1.27;0.60;;;12.30;90.90;;;;;;4148719;28;20119;-54
2024/03/25 09:22:00;;;;;;;1.08;0.43;;;12.20;91.10;;;;;;4148316;28;20054;-53
2024/03/25 09:24:02;;;;;;;2.03;1.00;;;12.10;91.30;;;;;;4164462;28;20052;-54
2024/03/25 09:26:04;;;;;;;2.22;0.77;;;12.10;91.00;;;;;;4148710;28;20428;-53
2024/03/25 09:28:06;;;;;;;3.67;1.25;;;12.10;91.20;;;;;;4148621;28;20064;-53
2024/03/25 09:30:09;;;;;;;1.77;1.08;;;12.10;91.10;;;;;;4149387;28;20131;-56
2024/03/25 09:32:10;;;;;;;0.30;0.30;;;12.10;91.30;;;;;;4132361;28;20054;-57
2024/03/25 09:34:12;;;;;;;1.67;1.00;;;12.20;91.60;;;;;;4148108;28;20052;-56
2024/03/25 09:36:13;;;;;;;1.27;0.90;;;12.20;91.40;;;;;;4148211;28;20056;-57
2024/03/25 09:38:15;;;;;;;0.55;0.30;;;12.10;91.40;;;;;;4148423;28;20050;-56
2024/03/25 09:40:16;;;;;;;0.38;0.38;;;12.10;91.60;;;;;;4148111;28;20046;-56
2024/03/25 09:42:25;;;;;;;5.93;0.52;;;12.20;91.10;;;;;;4148070;28;20480;-56
2024/03/25 09:44:31;;;;;;;0.60;0.32;;;12.00;91.70;;;;;;4147858;28;20493;-56
2024/03/25 09:46:34;;;;;;;0.60;0.40;;;12.10;91.80;;;;;;4148163;28;20068;-55
2024/03/25 09:48:36;;;;;;;0.55;0.22;;;12.30;91.80;;;;;;4147754;28;20041;-56
2024/03/25 09:50:39;;;;;;;1.05;0.45;;;12.50;91.40;;;;;;4148659;28;20049;-56
2024/03/25 09:52:43;;;;;;;1.60;0.95;;;12.40;90.80;;;;;;4149694;28;20390;-56
2024/03/25 09:54:44;;;;;;;1.30;0.65;;;12.40;91.40;;;;;;4148586;28;20075;-53
2024/03/25 09:56:48;;;;;;;1.42;0.60;;;12.40;91.40;;;;;;4148566;28;20413;-54
2024/03/25 09:58:50;;;;;;;0.70;0.43;;;12.40;91.10;;;;;;4148639;28;20501;-54
2024/03/25 10:00:52;;;;;;;0.90;0.80;;;12.50;91.60;;;;;;4149273;28;20093;-54
2024/03/25 10:02:54;;;;;;;1.55;1.10;;;12.60;91.20;;;;;;4149511;28;20445;-54
2024/03/25 10:04:56;;;;;;;0.30;0.30;;;12.60;91.00;;;;;;4150364;28;20064;-54
2024/03/25 10:06:57;;;;;;;13.15;1.10;;;12.70;91.10;;;;;;4149729;28;20050;-53
2024/03/25 10:09:01;;;;;;;1.73;0.80;;;12.80;91.30;;;;;;4148248;28;20045;-56
2024/03/25 10:11:03;;;;;;;0.35;0.35;;;12.80;91.00;;;;;;4149320;28;20532;-57
2024/03/25 10:13:04;;;;;;;0.30;0.30;;;12.70;90.70;;;;;;4148371;28;20048;-57
2024/03/25 10:15:06;;;;;;;0.68;0.32;;;12.80;91.20;;;;;;4147666;28;20057;-54
2024/03/25 10:17:07;;;;;;;0.45;0.30;;;12.80;90.90;;;;;;4147048;28;20060;-54
2024/03/25 10:19:10;;;;;;;2.78;0.52;;;12.80;91.10;;;;;;4147535;28;20052;-55
2024/03/25 10:21:12;;;;;;;0.60;0.57;;;12.90;91.10;;;;;;4147378;28;20046;-54
2024/03/25 10:23:13;;;;;;;0.40;0.30;;;13.00;91.10;;;;;;4130705;28;20054;-55
2024/03/25 10:25:26;;;;;;;0.35;0.30;;;12.90;90.90;;;;;;4146926;28;20473;-55
2024/03/25 10:27:27;;;;;;;0.98;0.65;;;12.90;90.80;;;;;;4148493;28;20103;-55
2024/03/25 10:29:28;;;;;;;1.08;0.30;;;12.90;90.90;;;;;;4147989;28;20046;-55
2024/03/25 10:31:31;;;;;;;0.57;0.50;;;13.10;90.50;;;;;;4148919;28;20053;-61
2024/03/25 10:33:33;;;;;;;3.25;0.40;;;13.20;90.20;;;;;;4149701;28;20054;-56
2024/03/25 10:35:37;;;;;;;1.58;0.93;;;13.30;89.10;;;;;;4148693;28;20053;-54
2024/03/25 10:37:39;;;;;;;2.38;1.48;;;13.20;90.30;;;;;;4147192;28;20045;-55
2024/03/25 10:39:47;;;;;;;0.68;0.22;;;13.10;88.50;;;;;;4147446;28;20440;-54
2024/03/25 10:41:49;;;;;;;0.90;0.47;;;13.20;90.00;;;;;;4147157;28;20432;-55
2024/03/25 10:43:53;;;;;;;0.95;0.57;;;13.10;89.40;;;;;;4147625;28;20052;-55
2024/03/25 10:45:56;;;;;;;0.60;0.20;;;13.20;90.20;;;;;;4147104;28;20096;-56